createdAt,value
2023-02-07T00:01:14.135Z,12.00
2023-02-07T00:03:41.076Z,13.40
2023-02-07T00:06:09.312Z,13.50
2023-02-07T00:08:38.573Z,12.10
2023-02-07T00:11:06.672Z,12.10
2023-02-07T00:13:34.611Z,11.90
2023-02-07T00:16:02.650Z,12.40
2023-02-07T00:18:30.643Z,13.40
2023-02-07T00:21:01.284Z,11.90
2023-02-07T00:23:28.437Z,11.70
2023-02-07T00:25:59.121Z,11.20
2023-02-07T00:28:25.980Z,12.20
2023-02-07T00:31:08.822Z,13.80
2023-02-07T00:33:38.089Z,14.00
2023-02-07T00:36:07.053Z,13.90
2023-02-07T00:38:34.206Z,13.60
2023-02-07T00:41:01.535Z,13.50
2023-02-07T00:43:32.301Z,13.00
2023-02-07T00:46:00.581Z,13.90
2023-02-07T00:48:28.151Z,13.20
2023-02-07T00:50:54.976Z,13.80
2023-02-07T00:53:22.289Z,14.20
2023-02-07T00:55:49.115Z,11.50
2023-02-07T00:58:15.870Z,12.70
2023-02-07T01:00:43.164Z,13.70
2023-02-07T01:03:10.023Z,13.10
2023-02-07T01:05:37.209Z,12.20
2023-02-07T01:08:09.108Z,13.20
2023-02-07T01:10:38.908Z,12.30
2023-02-07T01:13:05.875Z,12.60
2023-02-07T01:15:38.402Z,13.80
2023-02-07T01:18:05.549Z,12.30
2023-02-07T01:20:33.393Z,13.40
2023-02-07T01:23:00.356Z,12.20
2023-02-07T01:25:27.452Z,12.30
2023-02-07T01:27:56.676Z,11.20
2023-02-07T01:30:23.766Z,12.20
2023-02-07T01:32:51.746Z,12.10
2023-02-07T01:35:18.853Z,12.50
2023-02-07T01:37:45.812Z,13.80
2023-02-07T01:40:13.075Z,11.40
2023-02-07T01:42:39.895Z,13.80
2023-02-07T01:45:30.347Z,11.90
2023-02-07T01:48:01.274Z,11.80
2023-02-07T01:50:31.877Z,10.80
2023-02-07T01:53:00.196Z,12.10
2023-02-07T01:55:29.854Z,11.60
2023-02-07T01:57:57.087Z,11.10
2023-02-07T02:00:23.926Z,10.80
2023-02-07T02:02:51.051Z,11.70
2023-02-07T02:05:19.428Z,12.00
2023-02-07T02:07:47.110Z,11.30
2023-02-07T02:10:19.542Z,11.40
2023-02-07T02:13:10.405Z,12.30
2023-02-07T02:15:49.929Z,10.30
2023-02-07T02:18:38.428Z,12.00
2023-02-07T02:21:32.991Z,11.60
2023-02-07T02:24:12.069Z,11.10
2023-02-07T02:27:03.849Z,11.10
2023-02-07T02:30:12.046Z,11.10
2023-02-07T02:33:11.589Z,11.00
2023-02-07T02:36:00.103Z,9.40
2023-02-07T02:38:44.504Z,11.10
2023-02-07T02:41:17.438Z,11.10
2023-02-07T02:43:52.081Z,10.90
2023-02-07T02:46:24.382Z,12.30
2023-02-07T02:48:51.136Z,11.20
2023-02-07T02:51:18.280Z,11.70
2023-02-07T02:53:54.955Z,11.60
2023-02-07T02:56:40.972Z,11.70
2023-02-07T02:59:23.917Z,13.40
2023-02-07T03:02:00.464Z,11.30
2023-02-07T03:04:29.302Z,12.10
2023-02-07T03:06:56.473Z,11.80
2023-02-07T03:10:00.979Z,12.80
2023-02-07T03:12:55.727Z,12.70
2023-02-07T03:15:31.951Z,11.10
2023-02-07T03:18:06.879Z,11.50
2023-02-07T03:21:01.192Z,13.50
2023-02-07T03:23:29.055Z,13.80
2023-02-07T03:25:55.978Z,14.00
2023-02-07T03:28:23.695Z,13.40
2023-02-07T03:30:50.837Z,12.80
2023-02-07T03:33:17.672Z,12.50
2023-02-07T03:36:10.914Z,16.00
2023-02-07T03:38:37.640Z,16.50
2023-02-07T03:41:08.462Z,17.40
2023-02-07T03:43:36.486Z,17.00
2023-02-07T03:46:03.299Z,14.30
2023-02-07T03:48:32.896Z,16.90
2023-02-07T03:50:59.657Z,17.60
2023-02-07T03:53:26.921Z,14.90
2023-02-07T03:55:54.016Z,15.30
2023-02-07T03:58:21.109Z,16.40
2023-02-07T04:00:47.861Z,18.50
2023-02-07T04:03:14.616Z,16.40
2023-02-07T04:05:43.939Z,16.60
2023-02-07T04:08:10.670Z,16.30
2023-02-07T04:10:37.487Z,18.60
2023-02-07T04:13:06.412Z,17.60
2023-02-07T04:15:33.570Z,16.70
2023-02-07T04:18:00.324Z,18.30
2023-02-07T04:20:27.209Z,16.70
2023-02-07T04:22:54.295Z,17.00
2023-02-07T04:25:21.456Z,15.40
2023-02-07T04:27:51.240Z,15.90
2023-02-07T04:30:18.133Z,16.70
2023-02-07T04:32:45.184Z,16.90
2023-02-07T04:35:12.209Z,17.60
2023-02-07T04:37:40.209Z,17.20
2023-02-07T04:40:07.277Z,17.00
2023-02-07T04:42:34.800Z,15.80
2023-02-07T04:45:01.663Z,17.90
2023-02-07T04:47:29.332Z,17.50
2023-02-07T04:49:56.135Z,18.00
2023-02-07T04:52:23.186Z,17.60
2023-02-07T04:54:50.155Z,16.60
2023-02-07T04:57:16.986Z,15.60
2023-02-07T04:59:43.695Z,17.60
2023-02-07T05:02:10.590Z,16.90
2023-02-07T05:04:38.095Z,16.30
2023-02-07T05:07:05.069Z,15.50
2023-02-07T05:09:31.781Z,15.70
2023-02-07T05:11:58.541Z,18.40
2023-02-07T05:14:28.492Z,16.40
2023-02-07T05:16:55.362Z,17.10
2023-02-07T05:19:22.131Z,17.00
2023-02-07T05:21:48.917Z,18.30
2023-02-07T05:24:15.638Z,17.80
2023-02-07T05:26:42.370Z,20.30
2023-02-07T05:29:09.150Z,21.90
2023-02-07T05:31:55.100Z,25.60
2023-02-07T05:34:23.037Z,20.10
2023-02-07T05:36:49.722Z,21.20
2023-02-07T05:39:17.922Z,23.20
2023-02-07T05:41:44.658Z,24.60
2023-02-07T05:44:11.354Z,26.60
2023-02-07T05:46:38.201Z,21.50
2023-02-07T05:49:04.935Z,20.50
2023-02-07T05:51:31.909Z,19.80
2023-02-07T05:53:58.670Z,16.70
2023-02-07T05:56:25.379Z,17.00
2023-02-07T05:58:53.089Z,16.60
2023-02-07T06:01:19.872Z,17.70
2023-02-07T06:03:46.591Z,16.00
2023-02-07T06:06:13.280Z,15.20
2023-02-07T06:08:41.434Z,19.30
2023-02-07T06:11:08.406Z,17.30
2023-02-07T06:13:37.631Z,17.80
2023-02-07T06:16:04.707Z,15.10
2023-02-07T06:18:31.817Z,15.40
2023-02-07T06:20:58.683Z,12.80
2023-02-07T06:23:25.566Z,12.80
2023-02-07T06:25:52.420Z,14.70
2023-02-07T06:28:19.324Z,13.70
2023-02-07T06:30:46.354Z,12.80
2023-02-07T06:33:14.330Z,13.00
2023-02-07T06:35:46.662Z,12.90
2023-02-07T06:38:16.950Z,15.10
2023-02-07T06:40:44.802Z,14.10
2023-02-07T06:43:12.111Z,14.70
2023-02-07T06:45:39.133Z,13.40
2023-02-07T06:48:07.040Z,12.00
2023-02-07T06:50:33.994Z,11.40
2023-02-07T06:53:01.588Z,11.70
2023-02-07T06:55:29.571Z,11.40
2023-02-07T06:57:56.840Z,10.20
2023-02-07T07:00:24.344Z,11.70
2023-02-07T07:02:52.351Z,14.00
2023-02-07T07:05:19.807Z,12.90
2023-02-07T07:07:46.766Z,12.30
2023-02-07T07:10:14.143Z,11.00
2023-02-07T07:12:41.598Z,11.40
2023-02-07T07:15:08.590Z,13.50
2023-02-07T07:17:35.857Z,12.10
2023-02-07T07:20:02.868Z,10.90
2023-02-07T07:22:30.098Z,11.60
2023-02-07T07:24:56.822Z,12.30
2023-02-07T07:27:23.566Z,12.10
2023-02-07T07:29:50.729Z,10.90
2023-02-07T07:32:28.693Z,10.20
2023-02-07T07:35:00.475Z,10.10
2023-02-07T07:37:27.777Z,8.90
2023-02-07T07:39:54.519Z,9.40
2023-02-07T07:42:21.292Z,9.10
2023-02-07T07:45:03.665Z,8.80
2023-02-07T07:47:30.744Z,10.60
2023-02-07T07:49:57.472Z,8.80
2023-02-07T07:52:24.317Z,9.90
2023-02-07T07:54:51.495Z,9.30
2023-02-07T07:57:20.432Z,9.80
2023-02-07T07:59:48.343Z,9.90
2023-02-07T08:02:15.136Z,8.80
2023-02-07T08:04:41.934Z,9.60
2023-02-07T08:07:08.950Z,9.10
2023-02-07T08:09:35.806Z,9.80
2023-02-07T08:12:03.197Z,11.50
2023-02-07T08:14:30.152Z,11.90
2023-02-07T08:16:56.922Z,11.40
2023-02-07T08:19:23.764Z,11.10
2023-02-07T08:21:50.578Z,11.40
2023-02-07T08:24:17.367Z,12.00
2023-02-07T08:26:44.173Z,10.50
2023-02-07T08:29:11.342Z,9.80
2023-02-07T08:31:38.506Z,11.30
2023-02-07T08:34:05.624Z,10.50
2023-02-07T08:36:32.589Z,9.60
2023-02-07T08:38:59.910Z,10.80
2023-02-07T08:41:26.616Z,10.70
2023-02-07T08:43:53.350Z,10.30
2023-02-07T08:46:20.154Z,9.70
2023-02-07T08:48:47.470Z,11.10
2023-02-07T08:51:14.385Z,9.90
2023-02-07T08:53:41.512Z,9.70
2023-02-07T08:56:08.572Z,9.00
2023-02-07T08:58:35.355Z,10.40
2023-02-07T09:01:02.421Z,9.80
2023-02-07T09:03:29.236Z,10.70
2023-02-07T09:05:59.324Z,11.00
2023-02-07T09:08:26.603Z,9.20
2023-02-07T09:10:53.504Z,10.10
2023-02-07T09:13:20.403Z,9.90
2023-02-07T09:15:56.181Z,10.70
2023-02-07T09:20:52.971Z,10.20
2023-02-07T09:23:20.522Z,9.10
2023-02-07T09:25:49.308Z,10.70
2023-02-07T09:28:16.933Z,10.40
2023-02-07T09:30:44.541Z,11.90
2023-02-07T09:33:11.549Z,11.00
2023-02-07T09:35:40.420Z,12.00
2023-02-07T09:38:07.351Z,12.90
2023-02-07T10:32:24.627Z,11.10
2023-02-07T10:34:55.851Z,12.10
2023-02-07T10:37:29.312Z,9.20
2023-02-07T10:40:03.580Z,9.10
2023-02-07T10:42:33.816Z,10.70
2023-02-07T10:45:02.438Z,9.40
2023-02-07T10:47:31.290Z,8.90
2023-02-07T10:50:12.037Z,8.20
2023-02-07T10:53:00.420Z,6.70
2023-02-07T10:55:41.804Z,8.30
2023-02-07T10:58:23.139Z,9.90
2023-02-07T11:00:53.889Z,8.00
2023-02-07T11:03:25.452Z,7.00
2023-02-07T11:05:57.182Z,9.20
2023-02-07T11:08:28.243Z,10.70
2023-02-07T11:11:00.775Z,8.70
2023-02-07T11:13:30.528Z,5.90
2023-02-07T11:16:00.135Z,8.40
2023-02-07T11:18:28.619Z,7.50
2023-02-07T11:20:56.940Z,6.90
2023-02-07T11:23:25.140Z,6.90
2023-02-07T11:25:59.857Z,7.30
2023-02-07T11:28:30.927Z,10.40
2023-02-07T11:31:03.913Z,9.50
2023-02-07T11:33:33.903Z,12.10
2023-02-07T11:36:29.003Z,10.10
2023-02-07T11:38:58.854Z,6.60
2023-02-07T11:41:28.519Z,6.50
2023-02-07T11:44:06.870Z,5.30
2023-02-07T11:46:36.999Z,5.00
2023-02-07T11:49:09.341Z,5.40
2023-02-07T11:51:40.766Z,6.50
2023-02-07T11:54:10.081Z,8.30
2023-02-07T11:56:42.961Z,8.80
2023-02-07T11:59:18.858Z,6.20
2023-02-07T12:04:27.604Z,6.20
2023-02-07T12:07:06.865Z,6.60
2023-02-07T12:09:51.190Z,7.60
2023-02-07T12:12:37.119Z,8.10
2023-02-07T12:15:55.155Z,8.70
2023-02-07T12:18:53.903Z,6.20
2023-02-07T12:21:28.872Z,5.50
2023-02-07T12:24:06.640Z,9.00
2023-02-07T12:26:53.465Z,14.60
2023-02-07T12:29:49.802Z,7.90
2023-02-07T12:32:44.660Z,6.60
2023-02-07T12:35:27.987Z,12.60
2023-02-07T12:38:23.093Z,10.20
2023-02-07T12:41:00.704Z,7.60
2023-02-07T12:43:33.126Z,7.30
2023-02-07T12:46:01.523Z,6.30
2023-02-07T12:48:49.000Z,10.20
2023-02-07T12:51:46.527Z,10.70
2023-02-07T12:54:36.689Z,8.50
2023-02-07T12:57:14.998Z,9.40
2023-02-07T12:59:52.592Z,7.80
2023-02-07T13:02:38.667Z,7.90
2023-02-07T13:05:38.593Z,8.30
2023-02-07T13:08:25.580Z,8.10
2023-02-07T13:11:13.623Z,7.80
2023-02-07T13:13:48.029Z,5.50
2023-02-07T13:16:42.827Z,7.70
2023-02-07T13:19:19.822Z,6.80
2023-02-07T13:22:00.186Z,8.30
2023-02-07T13:24:29.237Z,7.80
2023-02-07T13:27:00.931Z,8.40
2023-02-07T13:29:30.200Z,9.30
2023-02-07T13:32:00.618Z,7.00
2023-02-07T13:34:35.305Z,9.20
2023-02-07T13:37:16.083Z,8.40
2023-02-07T13:39:52.971Z,8.00
2023-02-07T13:42:28.830Z,8.50
2023-02-07T13:47:37.802Z,11.30
2023-02-07T13:50:33.677Z,10.30
2023-02-07T13:53:19.450Z,8.50
2023-02-07T13:55:48.488Z,8.80
2023-02-07T13:58:53.812Z,8.00
2023-02-07T14:01:25.935Z,9.10
2023-02-07T14:04:03.303Z,8.80
2023-02-07T14:06:39.447Z,9.60
2023-02-07T14:09:19.373Z,11.50
2023-02-07T14:11:57.735Z,9.20
2023-02-07T14:14:26.882Z,10.00
2023-02-07T14:16:59.944Z,10.30
2023-02-07T14:19:51.581Z,11.50
2023-02-07T14:22:29.884Z,13.60
2023-02-07T14:25:03.785Z,12.60
2023-02-07T14:27:39.540Z,13.30
2023-02-07T14:30:14.246Z,11.90
2023-02-07T14:32:45.556Z,13.10
2023-02-07T14:35:16.842Z,13.60
2023-02-07T14:38:03.805Z,13.10
2023-02-07T14:40:35.586Z,10.80
2023-02-07T14:43:06.254Z,12.10
2023-02-07T14:45:36.517Z,10.30
2023-02-07T14:48:05.780Z,10.20
2023-02-07T14:50:34.838Z,10.80
2023-02-07T14:53:07.332Z,14.00
2023-02-07T14:55:48.297Z,13.50
2023-02-07T14:58:26.828Z,15.30
2023-02-07T15:00:56.595Z,14.70
2023-02-07T15:03:28.723Z,13.50
2023-02-07T15:06:01.545Z,14.40
2023-02-07T15:08:34.961Z,12.90
2023-02-07T15:11:08.183Z,13.60
2023-02-07T15:13:44.408Z,13.10
2023-02-07T15:16:18.423Z,12.60
2023-02-07T15:18:55.668Z,11.60
2023-02-07T15:21:28.078Z,13.10
2023-02-07T15:24:07.131Z,15.70
2023-02-07T15:26:35.768Z,13.60
2023-02-07T15:29:06.033Z,12.30
2023-02-07T15:31:39.627Z,14.20
2023-02-07T15:34:14.538Z,12.80
2023-02-07T15:36:46.111Z,13.50
2023-02-07T15:39:18.503Z,16.00
2023-02-07T15:41:47.466Z,19.30
2023-02-07T15:44:21.359Z,19.20
2023-02-07T15:46:55.134Z,23.30
2023-02-07T15:49:33.706Z,21.70
2023-02-07T15:52:17.868Z,14.80
2023-02-07T15:54:48.751Z,17.40
2023-02-07T15:57:28.906Z,14.80
2023-02-07T16:00:02.372Z,13.80
2023-02-07T16:02:47.606Z,13.80
2023-02-07T16:05:24.540Z,14.30
2023-02-07T16:07:54.070Z,13.00
2023-02-07T16:10:38.939Z,10.10
2023-02-07T16:13:07.349Z,8.80
2023-02-07T16:15:37.558Z,9.60
2023-02-07T16:18:06.175Z,12.60
2023-02-07T16:20:35.767Z,11.80
2023-02-07T16:23:04.881Z,11.30
2023-02-07T16:25:34.542Z,11.70
2023-02-07T16:28:11.545Z,12.80
2023-02-07T16:30:41.695Z,11.80
2023-02-07T16:33:12.999Z,12.10
2023-02-07T16:35:41.250Z,13.50
2023-02-07T16:38:09.919Z,13.30
2023-02-07T16:40:38.268Z,13.80
2023-02-07T16:43:06.918Z,14.60
2023-02-07T16:45:35.662Z,13.10
2023-02-07T16:48:04.302Z,15.60
2023-02-07T16:50:32.801Z,16.30
2023-02-07T16:53:01.487Z,14.00
2023-02-07T16:55:39.030Z,16.50
2023-02-07T16:58:08.199Z,17.30
2023-02-07T17:00:36.597Z,16.80
2023-02-07T17:03:14.297Z,19.20
2023-02-07T17:05:43.117Z,14.20
2023-02-07T17:08:16.227Z,13.50
2023-02-07T17:10:52.535Z,12.20
2023-02-07T17:13:21.625Z,14.00
2023-02-07T17:15:49.790Z,13.00
2023-02-07T17:18:21.163Z,16.70
2023-02-07T17:20:49.683Z,15.20
2023-02-07T17:23:17.828Z,14.90
2023-02-07T17:25:46.209Z,14.50
2023-02-07T17:28:16.360Z,13.30
2023-02-07T17:30:45.443Z,15.60
2023-02-07T17:33:14.029Z,16.70
2023-02-07T17:35:42.573Z,15.90
2023-02-07T17:38:10.672Z,13.30
2023-02-07T17:40:40.479Z,13.20
2023-02-07T17:43:09.060Z,14.60
2023-02-07T17:45:37.365Z,15.60
2023-02-07T17:48:06.025Z,14.20
2023-02-07T17:50:36.759Z,12.80
2023-02-07T17:53:05.231Z,14.60
2023-02-07T17:55:36.576Z,12.40
2023-02-07T20:11:20.402Z,38.20
2023-02-07T20:13:55.484Z,30.60
2023-02-07T20:16:25.517Z,26.00
2023-02-07T20:18:53.961Z,19.10
2023-02-07T20:21:24.598Z,15.20
2023-02-07T20:23:54.383Z,15.80
2023-02-07T20:26:31.575Z,17.10
2023-02-07T20:29:01.111Z,14.80
2023-02-07T20:31:32.232Z,14.50
2023-02-07T20:34:02.251Z,15.40
2023-02-07T20:36:31.894Z,16.50
2023-02-07T20:39:00.939Z,15.00
2023-02-07T20:41:29.644Z,16.60
2023-02-07T20:44:13.431Z,17.10
2023-02-07T20:46:42.399Z,15.30
2023-02-07T20:49:20.057Z,16.30
2023-02-07T20:51:49.597Z,20.30
2023-02-07T20:54:18.578Z,13.60
2023-02-07T20:56:46.763Z,13.20
2023-02-07T20:59:23.017Z,13.80
2023-02-07T21:01:51.366Z,12.70
2023-02-07T21:04:19.482Z,11.80
2023-02-07T21:06:48.114Z,11.60
2023-02-07T21:09:17.268Z,13.10
2023-02-07T21:11:48.045Z,11.30
2023-02-07T21:14:22.648Z,10.60
2023-02-07T21:16:52.495Z,9.80
2023-02-07T21:19:21.770Z,10.10
2023-02-07T21:21:51.257Z,10.30
2023-02-07T21:24:19.684Z,11.20
2023-02-07T21:26:49.264Z,10.20
2023-02-07T21:29:17.981Z,10.40
2023-02-07T21:31:46.251Z,11.90
2023-02-07T21:34:16.714Z,10.70
2023-02-07T21:36:45.313Z,9.30
2023-02-07T21:39:13.659Z,9.70
2023-02-07T21:41:43.068Z,10.70
2023-02-07T21:44:11.517Z,11.80
2023-02-07T21:46:41.736Z,11.10
2023-02-07T21:49:14.841Z,11.40
2023-02-07T21:51:44.665Z,13.00
2023-02-07T21:54:13.269Z,15.20
2023-02-07T21:56:42.761Z,14.00
2023-02-07T21:59:15.664Z,13.30
2023-02-07T22:01:45.117Z,14.10
2023-02-07T22:04:14.461Z,14.30
2023-02-07T22:06:44.060Z,13.70
2023-02-07T22:09:13.431Z,14.30
2023-02-07T22:11:42.458Z,12.50
2023-02-07T22:14:13.953Z,17.40
2023-02-07T22:16:43.473Z,12.50
2023-02-07T22:19:13.544Z,12.60
2023-02-07T22:21:44.660Z,14.30
2023-02-07T22:24:14.553Z,17.60
2023-02-07T22:26:43.521Z,13.20
2023-02-07T22:29:12.113Z,10.90
2023-02-07T22:31:41.264Z,10.30
2023-02-07T22:34:12.334Z,11.30
2023-02-07T22:36:43.346Z,15.60
2023-02-07T22:39:12.449Z,13.70
2023-02-07T22:41:40.570Z,13.70
2023-02-07T22:44:09.128Z,11.80
2023-02-07T22:46:37.854Z,15.70
2023-02-07T22:49:06.072Z,13.80
2023-02-07T22:51:36.345Z,11.80
2023-02-07T22:54:07.253Z,13.30
2023-02-07T22:56:37.540Z,13.40
2023-02-07T22:59:06.298Z,14.00
2023-02-07T23:01:39.187Z,18.50
2023-02-07T23:04:11.888Z,20.30
2023-02-07T23:06:41.241Z,12.90
2023-02-07T23:09:09.523Z,11.70
2023-02-07T23:11:38.334Z,10.50
2023-02-07T23:14:07.000Z,12.30
2023-02-07T23:16:35.633Z,10.20
2023-02-07T23:19:09.139Z,11.40
2023-02-07T23:21:37.440Z,13.60
2023-02-07T23:24:06.232Z,10.50
2023-02-07T23:26:34.500Z,11.50
2023-02-07T23:29:03.513Z,11.40
2023-02-07T23:31:31.925Z,10.70
2023-02-07T23:34:00.250Z,10.70
2023-02-07T23:36:28.541Z,9.90
2023-02-07T23:38:56.951Z,10.10
2023-02-07T23:41:25.169Z,11.00
2023-02-07T23:43:53.628Z,11.10
2023-02-07T23:46:22.230Z,10.30
2023-02-07T23:48:50.436Z,9.30
2023-02-07T23:51:19.791Z,11.20
2023-02-07T23:53:48.152Z,12.30
2023-02-07T23:56:21.653Z,9.70
2023-02-07T23:58:50.186Z,10.50
